sensor_id;sensor_type;location;lat;lon;timestamp;temperature;humidity
42833;DHT22;64089;51.478;5.692;2022-12-07T00:01:23;4.80;99.90
42833;DHT22;64089;51.478;5.692;2022-12-07T00:03:51;4.80;99.90
42833;DHT22;64089;51.478;5.692;2022-12-07T00:06:18;4.70;99.90
42833;DHT22;64089;51.478;5.692;2022-12-07T00:08:45;4.80;99.90
42833;DHT22;64089;51.478;5.692;2022-12-07T00:11:16;4.70;99.90
42833;DHT22;64089;51.478;5.692;2022-12-07T00:13:43;4.70;99.90
42833;DHT22;64089;51.478;5.692;2022-12-07T00:16:11;4.60;99.90
42833;DHT22;64089;51.478;5.692;2022-12-07T00:18:38;4.60;99.90
42833;DHT22;64089;51.478;5.692;2022-12-07T00:21:06;4.60;99.90
42833;DHT22;64089;51.478;5.692;2022-12-07T00:23:32;4.50;99.90
42833;DHT22;64089;51.478;5.692;2022-12-07T00:26:06;4.40;99.90
42833;DHT22;64089;51.478;5.692;2022-12-07T00:28:32;4.40;99.90
42833;DHT22;64089;51.478;5.692;2022-12-07T00:31:12;4.30;99.90
42833;DHT22;64089;51.478;5.692;2022-12-07T00:33:38;4.20;99.90
42833;DHT22;64089;51.478;5.692;2022-12-07T00:36:07;4.20;99.90
42833;DHT22;64089;51.478;5.692;2022-12-07T00:38:34;4.20;99.90
42833;DHT22;64089;51.478;5.692;2022-12-07T00:41:13;4.20;99.90
42833;DHT22;64089;51.478;5.692;2022-12-07T00:43:40;4.20;99.90
42833;DHT22;64089;51.478;5.692;2022-12-07T00:46:06;4.20;99.90
42833;DHT22;64089;51.478;5.692;2022-12-07T00:48:32;4.10;99.90
42833;DHT22;64089;51.478;5.692;2022-12-07T00:50:58;4.10;99.90
42833;DHT22;64089;51.478;5.692;2022-12-07T00:53:24;4.10;99.90
42833;DHT22;64089;51.478;5.692;2022-12-07T00:55:50;4.10;99.90
42833;DHT22;64089;51.478;5.692;2022-12-07T00:58:16;4.00;99.90
42833;DHT22;64089;51.478;5.692;2022-12-07T01:00:42;4.00;99.90
42833;DHT22;64089;51.478;5.692;2022-12-07T01:03:11;4.00;99.90
42833;DHT22;64089;51.478;5.692;2022-12-07T01:05:37;4.00;99.90
42833;DHT22;64089;51.478;5.692;2022-12-07T01:08:03;4.00;99.90
42833;DHT22;64089;51.478;5.692;2022-12-07T01:10:29;4.00;99.90
42833;DHT22;64089;51.478;5.692;2022-12-07T01:12:56;4.10;99.90
42833;DHT22;64089;51.478;5.692;2022-12-07T01:15:21;4.10;99.90
42833;DHT22;64089;51.478;5.692;2022-12-07T01:17:47;4.10;99.90
42833;DHT22;64089;51.478;5.692;2022-12-07T01:20:13;4.30;99.90
42833;DHT22;64089;51.478;5.692;2022-12-07T01:22:40;4.30;99.90
42833;DHT22;64089;51.478;5.692;2022-12-07T01:25:07;4.30;99.90
42833;DHT22;64089;51.478;5.692;2022-12-07T01:27:34;4.30;99.90
42833;DHT22;64089;51.478;5.692;2022-12-07T01:30:00;4.40;99.90
42833;DHT22;64089;51.478;5.692;2022-12-07T01:32:26;4.40;99.90
42833;DHT22;64089;51.478;5.692;2022-12-07T01:34:52;4.40;99.90
42833;DHT22;64089;51.478;5.692;2022-12-07T01:37:18;4.40;99.90
42833;DHT22;64089;51.478;5.692;2022-12-07T01:39:44;4.40;99.90
42833;DHT22;64089;51.478;5.692;2022-12-07T01:42:11;4.40;99.90
42833;DHT22;64089;51.478;5.692;2022-12-07T01:47:40;4.40;99.90
42833;DHT22;64089;51.478;5.692;2022-12-07T01:50:06;4.40;99.90
42833;DHT22;64089;51.478;5.692;2022-12-07T01:52:33;4.40;99.90
42833;DHT22;64089;51.478;5.692;2022-12-07T01:55:06;4.40;99.90
42833;DHT22;64089;51.478;5.692;2022-12-07T01:57:34;4.40;99.90
42833;DHT22;64089;51.478;5.692;2022-12-07T02:00:02;4.30;99.90
42833;DHT22;64089;51.478;5.692;2022-12-07T02:02:34;4.30;99.90
42833;DHT22;64089;51.478;5.692;2022-12-07T02:05:01;4.20;99.90
42833;DHT22;64089;51.478;5.692;2022-12-07T02:07:28;4.10;99.90
42833;DHT22;64089;51.478;5.692;2022-12-07T02:09:54;4.10;99.90
42833;DHT22;64089;51.478;5.692;2022-12-07T02:12:20;4.20;99.90
42833;DHT22;64089;51.478;5.692;2022-12-07T02:14:47;4.30;99.90
42833;DHT22;64089;51.478;5.692;2022-12-07T02:17:24;4.30;99.90
42833;DHT22;64089;51.478;5.692;2022-12-07T02:20:06;4.40;99.90
42833;DHT22;64089;51.478;5.692;2022-12-07T02:25:55;4.40;99.90
42833;DHT22;64089;51.478;5.692;2022-12-07T02:31:25;4.50;99.90
42833;DHT22;64089;51.478;5.692;2022-12-07T02:34:11;4.40;99.90
42833;DHT22;64089;51.478;5.692;2022-12-07T02:36:43;4.40;99.90
42833;DHT22;64089;51.478;5.692;2022-12-07T02:39:20;4.40;99.90
42833;DHT22;64089;51.478;5.692;2022-12-07T02:41:56;4.30;99.90
42833;DHT22;64089;51.478;5.692;2022-12-07T02:44:24;4.20;99.90
42833;DHT22;64089;51.478;5.692;2022-12-07T02:46:55;4.20;99.90
42833;DHT22;64089;51.478;5.692;2022-12-07T02:49:36;4.10;99.90
42833;DHT22;64089;51.478;5.692;2022-12-07T02:52:02;4.10;99.90
42833;DHT22;64089;51.478;5.692;2022-12-07T02:54:27;4.00;99.90
42833;DHT22;64089;51.478;5.692;2022-12-07T02:57:24;4.00;99.90
42833;DHT22;64089;51.478;5.692;2022-12-07T03:00:07;4.00;99.90
42833;DHT22;64089;51.478;5.692;2022-12-07T03:05:31;3.90;99.90
42833;DHT22;64089;51.478;5.692;2022-12-07T03:08:22;3.90;99.90
42833;DHT22;64089;51.478;5.692;2022-12-07T03:11:08;3.90;99.90
42833;DHT22;64089;51.478;5.692;2022-12-07T03:13:59;3.80;99.90
42833;DHT22;64089;51.478;5.692;2022-12-07T03:16:33;3.70;99.90
42833;DHT22;64089;51.478;5.692;2022-12-07T03:19:08;3.80;99.90
42833;DHT22;64089;51.478;5.692;2022-12-07T03:21:44;3.80;99.90
42833;DHT22;64089;51.478;5.692;2022-12-07T03:24:15;3.80;99.90
42833;DHT22;64089;51.478;5.692;2022-12-07T03:26:50;3.80;99.90
42833;DHT22;64089;51.478;5.692;2022-12-07T03:29:26;3.90;99.90
42833;DHT22;64089;51.478;5.692;2022-12-07T03:32:09;4.00;99.90
42833;DHT22;64089;51.478;5.692;2022-12-07T03:34:48;4.10;99.90
42833;DHT22;64089;51.478;5.692;2022-12-07T03:37:23;4.10;99.90
42833;DHT22;64089;51.478;5.692;2022-12-07T03:42:33;4.20;99.90
42833;DHT22;64089;51.478;5.692;2022-12-07T03:45:01;4.20;99.90
42833;DHT22;64089;51.478;5.692;2022-12-07T03:50:28;4.30;99.90
42833;DHT22;64089;51.478;5.692;2022-12-07T03:52:59;4.30;99.90
42833;DHT22;64089;51.478;5.692;2022-12-07T03:55:33;4.30;99.90
42833;DHT22;64089;51.478;5.692;2022-12-07T03:58:07;4.20;99.90
42833;DHT22;64089;51.478;5.692;2022-12-07T04:00:34;4.20;99.90
42833;DHT22;64089;51.478;5.692;2022-12-07T04:03:00;4.20;99.90
42833;DHT22;64089;51.478;5.692;2022-12-07T04:05:26;4.20;99.90
42833;DHT22;64089;51.478;5.692;2022-12-07T04:07:51;4.30;99.90
42833;DHT22;64089;51.478;5.692;2022-12-07T04:10:17;4.30;99.90
42833;DHT22;64089;51.478;5.692;2022-12-07T04:12:43;4.30;99.90
42833;DHT22;64089;51.478;5.692;2022-12-07T04:15:09;4.40;99.90
42833;DHT22;64089;51.478;5.692;2022-12-07T04:17:35;4.40;99.90
42833;DHT22;64089;51.478;5.692;2022-12-07T04:20:01;4.40;99.90
42833;DHT22;64089;51.478;5.692;2022-12-07T04:22:27;4.40;99.90
42833;DHT22;64089;51.478;5.692;2022-12-07T04:24:53;4.40;99.90
42833;DHT22;64089;51.478;5.692;2022-12-07T04:27:18;4.40;99.90
42833;DHT22;64089;51.478;5.692;2022-12-07T04:29:44;4.50;99.90
42833;DHT22;64089;51.478;5.692;2022-12-07T04:32:09;4.50;99.90
42833;DHT22;64089;51.478;5.692;2022-12-07T04:34:35;4.50;99.90
42833;DHT22;64089;51.478;5.692;2022-12-07T04:37:01;4.50;99.90
42833;DHT22;64089;51.478;5.692;2022-12-07T04:39:29;4.50;99.90
42833;DHT22;64089;51.478;5.692;2022-12-07T04:41:55;4.50;99.90
42833;DHT22;64089;51.478;5.692;2022-12-07T04:44:23;4.50;99.90
42833;DHT22;64089;51.478;5.692;2022-12-07T04:46:49;4.50;99.90
42833;DHT22;64089;51.478;5.692;2022-12-07T04:49:15;4.40;99.90
42833;DHT22;64089;51.478;5.692;2022-12-07T04:51:41;4.40;99.90
42833;DHT22;64089;51.478;5.692;2022-12-07T04:54:07;4.40;99.90
42833;DHT22;64089;51.478;5.692;2022-12-07T04:56:33;4.40;99.90
42833;DHT22;64089;51.478;5.692;2022-12-07T04:59:00;4.40;99.90
42833;DHT22;64089;51.478;5.692;2022-12-07T05:01:26;4.40;99.90
42833;DHT22;64089;51.478;5.692;2022-12-07T05:03:52;4.40;99.90
42833;DHT22;64089;51.478;5.692;2022-12-07T05:06:18;4.50;99.90
42833;DHT22;64089;51.478;5.692;2022-12-07T05:08:43;4.40;99.90
42833;DHT22;64089;51.478;5.692;2022-12-07T05:11:09;4.50;99.90
42833;DHT22;64089;51.478;5.692;2022-12-07T05:13:55;4.40;99.90
42833;DHT22;64089;51.478;5.692;2022-12-07T05:16:21;4.40;99.90
42833;DHT22;64089;51.478;5.692;2022-12-07T05:18:46;4.40;99.90
42833;DHT22;64089;51.478;5.692;2022-12-07T05:21:12;4.30;99.90
42833;DHT22;64089;51.478;5.692;2022-12-07T05:23:37;4.20;99.90
42833;DHT22;64089;51.478;5.692;2022-12-07T05:26:03;4.20;99.90
42833;DHT22;64089;51.478;5.692;2022-12-07T05:28:29;4.10;99.90
42833;DHT22;64089;51.478;5.692;2022-12-07T05:30:54;4.10;99.90
42833;DHT22;64089;51.478;5.692;2022-12-07T05:33:20;4.10;99.90
42833;DHT22;64089;51.478;5.692;2022-12-07T05:35:45;4.00;99.90
42833;DHT22;64089;51.478;5.692;2022-12-07T05:38:11;3.90;99.90
42833;DHT22;64089;51.478;5.692;2022-12-07T05:40:37;3.90;99.90
42833;DHT22;64089;51.478;5.692;2022-12-07T05:43:02;3.90;99.90
42833;DHT22;64089;51.478;5.692;2022-12-07T05:45:28;3.90;99.90
42833;DHT22;64089;51.478;5.692;2022-12-07T05:47:53;3.90;99.90
42833;DHT22;64089;51.478;5.692;2022-12-07T05:50:19;3.80;99.90
42833;DHT22;64089;51.478;5.692;2022-12-07T05:52:45;3.80;99.90
42833;DHT22;64089;51.478;5.692;2022-12-07T05:55:10;3.70;99.90
42833;DHT22;64089;51.478;5.692;2022-12-07T05:57:36;3.70;99.90
42833;DHT22;64089;51.478;5.692;2022-12-07T06:00:03;3.70;99.90
42833;DHT22;64089;51.478;5.692;2022-12-07T06:02:29;3.60;99.90
42833;DHT22;64089;51.478;5.692;2022-12-07T06:04:55;3.60;99.90
42833;DHT22;64089;51.478;5.692;2022-12-07T06:07:20;3.60;99.90
42833;DHT22;64089;51.478;5.692;2022-12-07T06:09:46;3.60;99.90
42833;DHT22;64089;51.478;5.692;2022-12-07T06:12:12;3.60;99.90
42833;DHT22;64089;51.478;5.692;2022-12-07T06:14:57;3.60;99.90
42833;DHT22;64089;51.478;5.692;2022-12-07T06:17:23;3.60;99.90
42833;DHT22;64089;51.478;5.692;2022-12-07T06:19:49;3.60;99.90
42833;DHT22;64089;51.478;5.692;2022-12-07T06:22:14;3.50;99.90
42833;DHT22;64089;51.478;5.692;2022-12-07T06:24:41;3.50;99.90
42833;DHT22;64089;51.478;5.692;2022-12-07T06:27:08;3.50;99.90
42833;DHT22;64089;51.478;5.692;2022-12-07T06:29:34;3.40;99.90
42833;DHT22;64089;51.478;5.692;2022-12-07T06:31:59;3.40;99.90
42833;DHT22;64089;51.478;5.692;2022-12-07T06:34:25;3.40;99.90
42833;DHT22;64089;51.478;5.692;2022-12-07T06:36:52;3.50;99.90
42833;DHT22;64089;51.478;5.692;2022-12-07T06:39:22;3.50;99.90
42833;DHT22;64089;51.478;5.692;2022-12-07T06:41:49;3.40;99.90
42833;DHT22;64089;51.478;5.692;2022-12-07T06:44:17;3.40;99.90
42833;DHT22;64089;51.478;5.692;2022-12-07T06:46:43;3.40;99.90
42833;DHT22;64089;51.478;5.692;2022-12-07T06:49:08;3.40;99.90
42833;DHT22;64089;51.478;5.692;2022-12-07T06:51:34;3.40;99.90
42833;DHT22;64089;51.478;5.692;2022-12-07T06:54:02;3.40;99.90
42833;DHT22;64089;51.478;5.692;2022-12-07T06:56:29;3.40;99.90
42833;DHT22;64089;51.478;5.692;2022-12-07T06:58:54;3.40;99.90
42833;DHT22;64089;51.478;5.692;2022-12-07T07:01:20;3.50;99.90
42833;DHT22;64089;51.478;5.692;2022-12-07T07:03:46;3.50;99.90
42833;DHT22;64089;51.478;5.692;2022-12-07T07:06:12;3.50;99.90
42833;DHT22;64089;51.478;5.692;2022-12-07T07:08:38;3.50;99.90
42833;DHT22;64089;51.478;5.692;2022-12-07T07:11:05;3.60;99.90
42833;DHT22;64089;51.478;5.692;2022-12-07T07:13:30;3.50;99.90
42833;DHT22;64089;51.478;5.692;2022-12-07T07:15:56;3.50;99.90
42833;DHT22;64089;51.478;5.692;2022-12-07T07:18:22;3.40;99.90
42833;DHT22;64089;51.478;5.692;2022-12-07T07:20:48;3.50;99.90
42833;DHT22;64089;51.478;5.692;2022-12-07T07:23:13;3.40;99.90
42833;DHT22;64089;51.478;5.692;2022-12-07T07:25:39;3.40;99.90
42833;DHT22;64089;51.478;5.692;2022-12-07T07:28:04;3.40;99.90
42833;DHT22;64089;51.478;5.692;2022-12-07T07:30:30;3.50;99.90
42833;DHT22;64089;51.478;5.692;2022-12-07T07:33:00;3.60;99.90
42833;DHT22;64089;51.478;5.692;2022-12-07T07:35:27;3.60;99.90
42833;DHT22;64089;51.478;5.692;2022-12-07T07:37:53;3.60;99.90
42833;DHT22;64089;51.478;5.692;2022-12-07T07:40:18;3.60;99.90
42833;DHT22;64089;51.478;5.692;2022-12-07T07:42:47;3.50;99.90
42833;DHT22;64089;51.478;5.692;2022-12-07T07:45:13;3.50;99.90
42833;DHT22;64089;51.478;5.692;2022-12-07T07:47:39;3.50;99.90
42833;DHT22;64089;51.478;5.692;2022-12-07T07:50:05;3.60;99.90
42833;DHT22;64089;51.478;5.692;2022-12-07T07:52:31;3.60;99.90
42833;DHT22;64089;51.478;5.692;2022-12-07T07:54:56;3.70;99.90
42833;DHT22;64089;51.478;5.692;2022-12-07T07:57:22;3.70;99.90
42833;DHT22;64089;51.478;5.692;2022-12-07T07:59:48;3.70;99.90
42833;DHT22;64089;51.478;5.692;2022-12-07T08:02:16;3.70;99.90
42833;DHT22;64089;51.478;5.692;2022-12-07T08:04:42;3.70;99.90
42833;DHT22;64089;51.478;5.692;2022-12-07T08:07:08;3.70;99.90
42833;DHT22;64089;51.478;5.692;2022-12-07T08:09:33;3.70;99.90
42833;DHT22;64089;51.478;5.692;2022-12-07T08:11:59;3.70;99.90
42833;DHT22;64089;51.478;5.692;2022-12-07T08:14:26;3.70;99.90
42833;DHT22;64089;51.478;5.692;2022-12-07T08:16:52;3.70;99.90
42833;DHT22;64089;51.478;5.692;2022-12-07T08:19:18;3.60;99.90
42833;DHT22;64089;51.478;5.692;2022-12-07T08:21:44;3.70;99.90
42833;DHT22;64089;51.478;5.692;2022-12-07T08:24:09;3.70;99.90
42833;DHT22;64089;51.478;5.692;2022-12-07T08:26:35;3.70;99.90
42833;DHT22;64089;51.478;5.692;2022-12-07T08:29:00;3.80;99.90
42833;DHT22;64089;51.478;5.692;2022-12-07T08:31:26;3.80;99.90
42833;DHT22;64089;51.478;5.692;2022-12-07T08:33:53;3.80;99.90
42833;DHT22;64089;51.478;5.692;2022-12-07T08:36:19;3.90;99.90
42833;DHT22;64089;51.478;5.692;2022-12-07T08:38:46;4.00;99.90
42833;DHT22;64089;51.478;5.692;2022-12-07T08:41:11;4.10;99.90
42833;DHT22;64089;51.478;5.692;2022-12-07T08:43:37;4.20;99.90
42833;DHT22;64089;51.478;5.692;2022-12-07T08:46:07;4.20;99.90
42833;DHT22;64089;51.478;5.692;2022-12-07T08:48:36;4.30;99.90
42833;DHT22;64089;51.478;5.692;2022-12-07T08:51:02;4.30;99.90
42833;DHT22;64089;51.478;5.692;2022-12-07T08:53:29;4.30;99.90
42833;DHT22;64089;51.478;5.692;2022-12-07T08:55:56;4.40;99.90
42833;DHT22;64089;51.478;5.692;2022-12-07T08:58:22;4.40;99.90
42833;DHT22;64089;51.478;5.692;2022-12-07T09:00:47;4.50;99.90
42833;DHT22;64089;51.478;5.692;2022-12-07T09:03:13;4.50;99.90
42833;DHT22;64089;51.478;5.692;2022-12-07T09:05:39;4.50;99.90
42833;DHT22;64089;51.478;5.692;2022-12-07T09:08:04;4.50;99.90
42833;DHT22;64089;51.478;5.692;2022-12-07T09:10:30;4.60;99.90
42833;DHT22;64089;51.478;5.692;2022-12-07T09:12:56;4.90;99.90
42833;DHT22;64089;51.478;5.692;2022-12-07T09:15:29;5.10;99.90
42833;DHT22;64089;51.478;5.692;2022-12-07T09:17:55;5.10;99.90
42833;DHT22;64089;51.478;5.692;2022-12-07T09:20:21;5.00;99.90
42833;DHT22;64089;51.478;5.692;2022-12-07T09:22:47;5.00;99.90
42833;DHT22;64089;51.478;5.692;2022-12-07T09:25:13;5.00;99.90
42833;DHT22;64089;51.478;5.692;2022-12-07T09:27:39;4.90;99.90
42833;DHT22;64089;51.478;5.692;2022-12-07T09:30:05;4.90;99.90
42833;DHT22;64089;51.478;5.692;2022-12-07T09:32:32;5.00;99.90
42833;DHT22;64089;51.478;5.692;2022-12-07T09:34:57;5.00;99.90
42833;DHT22;64089;51.478;5.692;2022-12-07T09:37:23;5.00;99.90
42833;DHT22;64089;51.478;5.692;2022-12-07T09:39:49;5.00;99.90
42833;DHT22;64089;51.478;5.692;2022-12-07T09:42:38;5.00;99.90
42833;DHT22;64089;51.478;5.692;2022-12-07T09:45:22;5.10;99.90
42833;DHT22;64089;51.478;5.692;2022-12-07T09:47:48;5.20;99.90
42833;DHT22;64089;51.478;5.692;2022-12-07T09:50:21;5.20;99.90
42833;DHT22;64089;51.478;5.692;2022-12-07T09:52:48;5.30;99.90
42833;DHT22;64089;51.478;5.692;2022-12-07T09:55:28;5.20;99.90
42833;DHT22;64089;51.478;5.692;2022-12-07T09:57:55;5.10;99.90
42833;DHT22;64089;51.478;5.692;2022-12-07T10:00:22;5.10;99.90
42833;DHT22;64089;51.478;5.692;2022-12-07T10:03:01;5.10;99.90
42833;DHT22;64089;51.478;5.692;2022-12-07T10:05:51;5.10;99.90
42833;DHT22;64089;51.478;5.692;2022-12-07T10:08:16;5.10;99.90
42833;DHT22;64089;51.478;5.692;2022-12-07T10:10:44;5.20;99.90
42833;DHT22;64089;51.478;5.692;2022-12-07T10:13:15;5.10;99.90
42833;DHT22;64089;51.478;5.692;2022-12-07T10:15:53;5.10;99.90
42833;DHT22;64089;51.478;5.692;2022-12-07T10:18:28;5.10;99.90
42833;DHT22;64089;51.478;5.692;2022-12-07T10:21:14;5.20;99.90
42833;DHT22;64089;51.478;5.692;2022-12-07T10:28:53;5.50;99.90
42833;DHT22;64089;51.478;5.692;2022-12-07T10:31:21;5.70;99.90
42833;DHT22;64089;51.478;5.692;2022-12-07T10:36:19;5.80;99.90
42833;DHT22;64089;51.478;5.692;2022-12-07T10:38:48;5.80;99.90
42833;DHT22;64089;51.478;5.692;2022-12-07T10:41:15;6.00;99.90
42833;DHT22;64089;51.478;5.692;2022-12-07T10:43:49;6.10;99.90
42833;DHT22;64089;51.478;5.692;2022-12-07T10:46:38;6.20;99.90
42833;DHT22;64089;51.478;5.692;2022-12-07T10:52:26;6.40;99.90
42833;DHT22;64089;51.478;5.692;2022-12-07T10:55:12;6.40;99.90
42833;DHT22;64089;51.478;5.692;2022-12-07T10:58:12;6.50;99.90
42833;DHT22;64089;51.478;5.692;2022-12-07T11:04:02;6.40;99.90
42833;DHT22;64089;51.478;5.692;2022-12-07T11:15:18;7.30;99.90
42833;DHT22;64089;51.478;5.692;2022-12-07T11:23:04;7.80;99.90
42833;DHT22;64089;51.478;5.692;2022-12-07T11:25:50;8.00;99.90
42833;DHT22;64089;51.478;5.692;2022-12-07T11:33:54;7.90;99.90
42833;DHT22;64089;51.478;5.692;2022-12-07T11:36:51;7.70;99.90
42833;DHT22;64089;51.478;5.692;2022-12-07T11:39:35;7.50;99.90
42833;DHT22;64089;51.478;5.692;2022-12-07T11:42:25;7.40;99.90
42833;DHT22;64089;51.478;5.692;2022-12-07T11:44:59;7.40;99.90
42833;DHT22;64089;51.478;5.692;2022-12-07T11:47:42;7.40;99.90
42833;DHT22;64089;51.478;5.692;2022-12-07T11:50:38;7.50;99.90
42833;DHT22;64089;51.478;5.692;2022-12-07T11:58:51;7.40;99.90
42833;DHT22;64089;51.478;5.692;2022-12-07T12:06:39;7.30;99.90
42833;DHT22;64089;51.478;5.692;2022-12-07T12:09:17;7.30;99.90
42833;DHT22;64089;51.478;5.692;2022-12-07T12:22:40;7.30;99.90
42833;DHT22;64089;51.478;5.692;2022-12-07T12:25:27;7.30;99.90
42833;DHT22;64089;51.478;5.692;2022-12-07T12:27:56;7.20;99.90
42833;DHT22;64089;51.478;5.692;2022-12-07T12:33:23;7.40;99.90
42833;DHT22;64089;51.478;5.692;2022-12-07T12:36:18;7.30;99.90
42833;DHT22;64089;51.478;5.692;2022-12-07T12:47:38;7.40;99.90
42833;DHT22;64089;51.478;5.692;2022-12-07T12:53:38;7.10;99.90
42833;DHT22;64089;51.478;5.692;2022-12-07T12:58:42;6.90;99.90
42833;DHT22;64089;51.478;5.692;2022-12-07T13:06:48;6.90;99.90
42833;DHT22;64089;51.478;5.692;2022-12-07T13:09:28;6.90;99.90
42833;DHT22;64089;51.478;5.692;2022-12-07T13:12:05;6.90;99.90
42833;DHT22;64089;51.478;5.692;2022-12-07T13:14:54;7.00;99.90
42833;DHT22;64089;51.478;5.692;2022-12-07T13:20:07;7.20;99.90
42833;DHT22;64089;51.478;5.692;2022-12-07T13:27:34;7.40;99.90
42833;DHT22;64089;51.478;5.692;2022-12-07T13:30:01;7.50;99.90
42833;DHT22;64089;51.478;5.692;2022-12-07T13:32:28;7.50;99.90
42833;DHT22;64089;51.478;5.692;2022-12-07T13:34:55;7.30;99.90
42833;DHT22;64089;51.478;5.692;2022-12-07T13:37:26;7.20;99.90
42833;DHT22;64089;51.478;5.692;2022-12-07T13:39:57;7.20;99.90
42833;DHT22;64089;51.478;5.692;2022-12-07T13:42:30;7.20;99.90
42833;DHT22;64089;51.478;5.692;2022-12-07T13:44:58;7.20;99.90
42833;DHT22;64089;51.478;5.692;2022-12-07T13:47:34;7.10;99.90
42833;DHT22;64089;51.478;5.692;2022-12-07T13:52:49;6.80;99.90
42833;DHT22;64089;51.478;5.692;2022-12-07T13:55:16;6.80;99.90
42833;DHT22;64089;51.478;5.692;2022-12-07T13:57:45;6.80;99.90
42833;DHT22;64089;51.478;5.692;2022-12-07T14:00:32;6.80;99.90
42833;DHT22;64089;51.478;5.692;2022-12-07T14:05:28;7.00;99.90
42833;DHT22;64089;51.478;5.692;2022-12-07T14:07:59;7.10;99.90
42833;DHT22;64089;51.478;5.692;2022-12-07T14:10:35;7.10;99.90
42833;DHT22;64089;51.478;5.692;2022-12-07T14:13:29;7.00;99.90
42833;DHT22;64089;51.478;5.692;2022-12-07T14:15:51;6.90;99.90
42833;DHT22;64089;51.478;5.692;2022-12-07T14:18:40;6.90;99.90
42833;DHT22;64089;51.478;5.692;2022-12-07T14:21:21;6.80;99.90
42833;DHT22;64089;51.478;5.692;2022-12-07T14:24:09;6.80;99.90
42833;DHT22;64089;51.478;5.692;2022-12-07T14:26:35;6.70;99.90
42833;DHT22;64089;51.478;5.692;2022-12-07T14:31:53;6.70;99.90
42833;DHT22;64089;51.478;5.692;2022-12-07T14:34:23;6.70;99.90
42833;DHT22;64089;51.478;5.692;2022-12-07T14:36:49;6.80;99.90
42833;DHT22;64089;51.478;5.692;2022-12-07T14:39:15;6.80;99.90
42833;DHT22;64089;51.478;5.692;2022-12-07T14:41:41;6.80;99.90
42833;DHT22;64089;51.478;5.692;2022-12-07T14:44:22;6.90;99.90
42833;DHT22;64089;51.478;5.692;2022-12-07T14:46:49;6.80;99.90
42833;DHT22;64089;51.478;5.692;2022-12-07T14:49:16;6.70;99.90
42833;DHT22;64089;51.478;5.692;2022-12-07T14:51:42;6.70;99.90
42833;DHT22;64089;51.478;5.692;2022-12-07T14:54:17;6.70;99.90
42833;DHT22;64089;51.478;5.692;2022-12-07T14:56:44;6.70;99.90
42833;DHT22;64089;51.478;5.692;2022-12-07T14:59:11;6.70;99.90
42833;DHT22;64089;51.478;5.692;2022-12-07T15:01:37;6.60;99.90
42833;DHT22;64089;51.478;5.692;2022-12-07T15:04:03;6.50;99.90
42833;DHT22;64089;51.478;5.692;2022-12-07T15:06:29;6.40;99.90
42833;DHT22;64089;51.478;5.692;2022-12-07T15:08:54;6.40;99.90
42833;DHT22;64089;51.478;5.692;2022-12-07T15:11:20;6.20;99.90
42833;DHT22;64089;51.478;5.692;2022-12-07T15:13:46;6.20;99.90
42833;DHT22;64089;51.478;5.692;2022-12-07T15:16:30;6.10;99.90
42833;DHT22;64089;51.478;5.692;2022-12-07T15:18:56;6.10;99.90
42833;DHT22;64089;51.478;5.692;2022-12-07T15:21:21;6.10;99.90
42833;DHT22;64089;51.478;5.692;2022-12-07T15:23:47;6.10;99.90
42833;DHT22;64089;51.478;5.692;2022-12-07T15:26:13;6.10;99.90
42833;DHT22;64089;51.478;5.692;2022-12-07T15:28:39;6.00;99.90
42833;DHT22;64089;51.478;5.692;2022-12-07T15:31:13;6.00;99.90
42833;DHT22;64089;51.478;5.692;2022-12-07T15:33:39;6.00;99.90
42833;DHT22;64089;51.478;5.692;2022-12-07T15:36:05;5.90;99.90
42833;DHT22;64089;51.478;5.692;2022-12-07T15:38:31;5.90;99.90
42833;DHT22;64089;51.478;5.692;2022-12-07T15:40:57;6.10;99.90
42833;DHT22;64089;51.478;5.692;2022-12-07T15:43:22;6.00;99.90
42833;DHT22;64089;51.478;5.692;2022-12-07T15:46:07;6.00;99.90
42833;DHT22;64089;51.478;5.692;2022-12-07T15:48:32;5.90;99.90
42833;DHT22;64089;51.478;5.692;2022-12-07T15:51:05;5.90;99.90
42833;DHT22;64089;51.478;5.692;2022-12-07T15:53:31;5.80;99.90
42833;DHT22;64089;51.478;5.692;2022-12-07T15:55:57;5.80;99.90
42833;DHT22;64089;51.478;5.692;2022-12-07T15:58:22;6.00;99.90
42833;DHT22;64089;51.478;5.692;2022-12-07T16:00:48;6.00;99.90
42833;DHT22;64089;51.478;5.692;2022-12-07T16:03:14;6.00;99.90
42833;DHT22;64089;51.478;5.692;2022-12-07T16:05:39;6.10;99.90
42833;DHT22;64089;51.478;5.692;2022-12-07T16:08:05;6.20;99.90
42833;DHT22;64089;51.478;5.692;2022-12-07T16:10:31;6.20;99.90
42833;DHT22;64089;51.478;5.692;2022-12-07T16:12:56;6.30;99.90
42833;DHT22;64089;51.478;5.692;2022-12-07T16:15:22;6.30;99.90
42833;DHT22;64089;51.478;5.692;2022-12-07T16:17:50;6.20;99.90
42833;DHT22;64089;51.478;5.692;2022-12-07T16:20:16;6.20;99.90
42833;DHT22;64089;51.478;5.692;2022-12-07T16:22:41;6.10;99.90
42833;DHT22;64089;51.478;5.692;2022-12-07T16:25:07;6.20;99.90
42833;DHT22;64089;51.478;5.692;2022-12-07T16:27:34;6.10;99.90
42833;DHT22;64089;51.478;5.692;2022-12-07T16:30:00;6.10;99.90
42833;DHT22;64089;51.478;5.692;2022-12-07T16:32:25;6.00;99.90
42833;DHT22;64089;51.478;5.692;2022-12-07T16:34:51;6.00;99.90
42833;DHT22;64089;51.478;5.692;2022-12-07T16:37:16;6.00;99.90
42833;DHT22;64089;51.478;5.692;2022-12-07T16:39:42;6.00;99.90
42833;DHT22;64089;51.478;5.692;2022-12-07T16:42:08;6.00;99.90
42833;DHT22;64089;51.478;5.692;2022-12-07T16:44:33;6.00;99.90
42833;DHT22;64089;51.478;5.692;2022-12-07T16:46:59;6.00;99.90
42833;DHT22;64089;51.478;5.692;2022-12-07T16:49:26;6.00;99.90
42833;DHT22;64089;51.478;5.692;2022-12-07T16:51:51;5.90;99.90
42833;DHT22;64089;51.478;5.692;2022-12-07T16:54:17;5.90;99.90
42833;DHT22;64089;51.478;5.692;2022-12-07T16:56:43;5.90;99.90
42833;DHT22;64089;51.478;5.692;2022-12-07T16:59:09;5.80;99.90
42833;DHT22;64089;51.478;5.692;2022-12-07T17:01:34;5.80;99.90
42833;DHT22;64089;51.478;5.692;2022-12-07T17:04:01;5.80;99.90
42833;DHT22;64089;51.478;5.692;2022-12-07T17:06:28;5.80;99.90
42833;DHT22;64089;51.478;5.692;2022-12-07T17:08:55;5.80;99.90
42833;DHT22;64089;51.478;5.692;2022-12-07T17:11:26;5.70;99.90
42833;DHT22;64089;51.478;5.692;2022-12-07T17:13:52;5.70;99.90
42833;DHT22;64089;51.478;5.692;2022-12-07T17:16:47;5.80;99.90
42833;DHT22;64089;51.478;5.692;2022-12-07T17:19:15;5.70;99.90
42833;DHT22;64089;51.478;5.692;2022-12-07T17:21:41;5.70;99.90
42833;DHT22;64089;51.478;5.692;2022-12-07T17:24:09;5.70;99.90
42833;DHT22;64089;51.478;5.692;2022-12-07T17:26:36;5.70;99.90
42833;DHT22;64089;51.478;5.692;2022-12-07T17:29:06;5.70;99.90
42833;DHT22;64089;51.478;5.692;2022-12-07T17:31:33;5.60;99.90
42833;DHT22;64089;51.478;5.692;2022-12-07T17:33:59;5.70;99.90
42833;DHT22;64089;51.478;5.692;2022-12-07T17:36:27;5.80;99.90
42833;DHT22;64089;51.478;5.692;2022-12-07T17:38:54;6.00;99.90
42833;DHT22;64089;51.478;5.692;2022-12-07T17:41:25;6.10;99.90
42833;DHT22;64089;51.478;5.692;2022-12-07T17:44:15;6.20;99.90
42833;DHT22;64089;51.478;5.692;2022-12-07T17:46:42;6.30;99.90
42833;DHT22;64089;51.478;5.692;2022-12-07T17:49:08;6.30;99.90
42833;DHT22;64089;51.478;5.692;2022-12-07T17:51:34;6.30;99.90